• Join FlightAware (Why Join?)
  • Login
  • US Flag 
05:05AM EDT


 

Airport Tracker/Info


-or-


 

Live Flight TrackerFlight Track Log ✈ ASQ4663 ✈ 15-May-2013 ✈ KBTV - KEWR

Flight Track Log - Related Links

Times and Time Zones

All times are in EDT time to prevent confusion due to time zone crossing. See the ASQ4663 flight status page for this flight to view local times or setup timezone preferences in your user account.

Time Position Orientation Groundspeed Altitude Reporting Facility
EDT Latitude Longitude Course Direction KTS MPH feet Rate Location/Type
05:19PM 44.3697 -73.1369 196° South 213 245 6,300  Level Boston Center
05:20PM 44.2589 -73.2164 196° South  Level FlightAware Approximate
05:20PM 44.3194 -73.1656 202° Southwest 218 251 9,700  Level Boston Center
05:21PM 44.1935 -73.2516 190° South  Level FlightAware Approximate
05:21PM 44.2547 -73.1967 199° South 235 270 11,600  Level Boston Center
05:22PM 44.1235 -73.2691 190° South  Level FlightAware Approximate
05:22PM 44.1817 -73.2217 194° South 279 321 14,000  Level Boston Center
05:23PM 44.0539 -73.2885 196° South  Level FlightAware Approximate
05:23PM 44.0981 -73.2553 196° South 313 360 16,300  Level Boston Center
05:24PM 43.9855 -73.3158 196° South  Level FlightAware Approximate
05:24PM 44.0183 -73.3119 207° Southwest 325 374 18,300  Level Boston Center
05:25PM 43.9172 -73.3431 196° South  Level FlightAware Approximate
05:25PM 43.9428 -73.3886 216° Southwest 337 388 19,800  Level Boston Center
05:26PM 43.8364 -73.4128 189° South 362 417 21,000 900 Climbing Boston Center
05:27PM 43.7236 -73.4483 193° South 401 461 21,700 480 Climbing Boston Center
05:28PM 43.5919 -73.4892 193° South 427 491 22,000 120 Climbing Boston Center
05:29PM 43.4747 -73.5244 192° South 433 498 22,000  Level Boston Center
05:30PM 43.3578 -73.5622 193° South 433 498 22,000  Level Boston Center
05:31PM 43.2364 -73.6000 193° South 433 498 22,000  Level Boston Center
05:32PM 43.1464 -73.6325 195° South 428 493 22,000 -720 Level Boston Center
05:33PM 43.0250 -73.6869 198° South 428 493 20,600 -2,040 Descending Boston Center
05:34PM 42.9056 -73.7383 197° South 414 476 18,000 -2,220 Descending Boston Center
05:35PM 42.8136 -73.7817 199° South 401 461 16,200 -1,020 Descending Boston Center
05:36PM 42.7086 -73.8275 198° South 401 461 16,000 -120 Descending Boston Center
05:37PM 42.5956 -73.8728 196° South 395 455 16,000  Level Boston Center
05:38PM 42.5014 -73.9131 198° South 395 455 16,100  Climbing Boston Center
05:39PM 42.3861 -73.9636 198° South 395 455 16,000 -60 Descending Boston Center
05:40PM 42.2917 -74.0061 198° South 395 455 16,000  Level Boston Center
05:41PM 42.1825 -74.0567 199° South 390 449 16,000 -60 Level Boston Center
05:42PM 42.0819 -74.1017 198° South 385 443 15,900 -60 Descending Boston Center
05:43PM 41.9811 -74.1436 197° South 385 443 15,900 -720 Level Boston Center
05:44PM 41.8908 -74.1831 198° South 385 443 14,500 -1,380 Descending Boston Center
05:45PM 41.7797 -74.2331 199° South 385 443 13,200 -1,260 Descending Boston Center
05:46PM 41.6917 -74.2722 198° South 380 437 12,000 -1,500 Descending Boston Center
05:47PM 41.5844 -74.3189 198° South 380 437 10,300 -1,020 Descending Boston Center
05:48PM 41.5153 -74.3475 197° South 361 415 10,000 -1,320 Descending Boston Center
05:49PM 41.4292 -74.3864 199° South 294 338 7,700 -1,500 Descending Boston Center
05:50PM 41.3661 -74.4122 197° South 273 314 7,000 -480 Descending Boston Center
05:51PM 41.3167 -74.4333 198° South 277 319 7,000  Level New York TRACON
05:52PM 41.2333 -74.4667 197° South 283 326 7,000 -120 Level New York TRACON
05:53PM 41.1667 -74.4833 191° South 277 319 6,800 -600 Descending New York TRACON
05:54PM 41.1000 -74.4167 143° Southeast 280 322 5,900 -900 Descending New York TRACON
05:55PM 41.0500 -74.3333 128° Southeast 269 310 5,000 -780 Descending New York TRACON
05:56PM 41.0000 -74.2667 135° Southeast 267 307 4,400 -540 Descending New York TRACON
05:57PM 40.9833 -74.1667 102° East 260 299 4,000 -480 Descending New York TRACON
05:58PM 40.9500 -74.0833 118° Southeast 258 297 3,500 -540 Descending New York TRACON
05:59PM 40.9000 -74.0500 153° Southeast 217 250 3,000 -300 Descending New York TRACON
06:00PM 40.8500 -74.0667 194° South 176 203 3,000 -300 Level New York TRACON
06:01PM 40.8167 -74.0833 201° Southwest 154 177 2,500 -540 Descending New York TRACON